ARG1590 SAWC-SAWH
Flight info
| Callsign | ARG1590 |
|---|---|
| Flight time | 1h 1m |
| Altitude | 37000 |
| Route | DEVIS UW52 GAL UW42 GRA DCT DABLI |
| Aircraft | B38M/M-SDE1FGHILORVWXY/HB1 |
Departure
| Time | 2026-04-26 18:52 |
|---|---|
| Airport | El Calafate - Commander Armando Tola International Airport (SAWC) |
Arrival
| Time | 2026-04-26 19:53 |
|---|---|
| Airport | Ushuaia - Malvinas Argentinas International Airport (SAWH) |
| Time | Latitude | Longitude | Altitude | Speed | Heading |
|---|---|---|---|---|---|
| 2026-04-26 18:14 | -50.28339 | -72.05626 | 645 ft | 0 kts | 224° |
| 2026-04-26 18:43 | -50.28325 | -72.05607 | 643 ft | 4 kts | 211° |
| 2026-04-26 18:43 | -50.28300 | -72.05594 | 646 ft | 4 kts | 184° |
| 2026-04-26 18:44 | -50.28285 | -72.05594 | 646 ft | 1 kts | 175° |
| 2026-04-26 18:48 | -50.28286 | -72.05593 | 646 ft | 1 kts | 175° |
| 2026-04-26 18:48 | -50.28293 | -72.05590 | 646 ft | 2 kts | 164° |
| 2026-04-26 18:48 | -50.28307 | -72.05572 | 646 ft | 4 kts | 130° |
| 2026-04-26 18:49 | -50.28296 | -72.05515 | 643 ft | 9 kts | 55° |
| 2026-04-26 18:49 | -50.28237 | -72.05412 | 643 ft | 16 kts | 31° |
| 2026-04-26 18:49 | -50.28126 | -72.05416 | 645 ft | 17 kts | 352° |
| 2026-04-26 18:49 | -50.28029 | -72.05378 | 645 ft | 15 kts | 68° |
| 2026-04-26 18:50 | -50.28013 | -72.05201 | 645 ft | 21 kts | 84° |
| 2026-04-26 18:50 | -50.27996 | -72.04914 | 649 ft | 31 kts | 85° |
| 2026-04-26 18:50 | -50.27974 | -72.04530 | 646 ft | 34 kts | 85° |
| 2026-04-26 18:50 | -50.27952 | -72.04165 | 645 ft | 33 kts | 83° |
| 2026-04-26 18:51 | -50.27930 | -72.03808 | 642 ft | 25 kts | 89° |
| 2026-04-26 18:51 | -50.27961 | -72.03614 | 644 ft | 16 kts | 87° |
| 2026-04-26 18:51 | -50.27930 | -72.03548 | 644 ft | 4 kts | 352° |
| 2026-04-26 18:51 | -50.27917 | -72.03571 | 645 ft | 4 kts | 276° |
| 2026-04-26 18:52 | -50.27924 | -72.03713 | 646 ft | 35 kts | 265° |
| 2026-04-26 18:52 | -50.27972 | -72.04530 | 646 ft | 113 kts | 265° |
| 2026-04-26 18:52 | -50.28066 | -72.06101 | 705 ft | 169 kts | 265° |
| 2026-04-26 18:52 | -50.28191 | -72.07998 | 1447 ft | 182 kts | 265° |
| 2026-04-26 18:53 | -50.28331 | -72.10016 | 2409 ft | 188 kts | 266° |
| 2026-04-26 18:53 | -50.28489 | -72.12190 | 2902 ft | 222 kts | 266° |
| 2026-04-26 18:53 | -50.28656 | -72.14711 | 3676 ft | 235 kts | 268° |
| 2026-04-26 18:53 | -50.28807 | -72.17365 | 4482 ft | 257 kts | 268° |
| 2026-04-26 18:54 | -50.28940 | -72.20111 | 5835 ft | 249 kts | 268° |
| 2026-04-26 18:54 | -50.29079 | -72.22811 | 6976 ft | 252 kts | 267° |
| 2026-04-26 18:54 | -50.29226 | -72.25549 | 8084 ft | 251 kts | 268° |
| 2026-04-26 18:54 | -50.29378 | -72.28272 | 9164 ft | 254 kts | 268° |
| 2026-04-26 18:55 | -50.29533 | -72.31022 | 10088 ft | 259 kts | 268° |
| 2026-04-26 18:55 | -50.29693 | -72.33852 | 10974 ft | 264 kts | 268° |
| 2026-04-26 18:55 | -50.29857 | -72.36749 | 11758 ft | 272 kts | 268° |
| 2026-04-26 18:55 | -50.30278 | -72.39654 | 11881 ft | 279 kts | 249° |
| 2026-04-26 18:56 | -50.31474 | -72.42200 | 12050 ft | 306 kts | 225° |
| 2026-04-26 18:56 | -50.33353 | -72.43961 | 12661 ft | 330 kts | 205° |
| 2026-04-26 18:56 | -50.35684 | -72.44641 | 13208 ft | 354 kts | 184° |
| 2026-04-26 18:56 | -50.38151 | -72.43923 | 13843 ft | 372 kts | 160° |
| 2026-04-26 18:57 | -50.40473 | -72.42021 | 14498 ft | 381 kts | 148° |
| 2026-04-26 18:57 | -50.41865 | -72.40239 | 15021 ft | 385 kts | 136° |
| 2026-04-26 18:57 | -50.43871 | -72.35606 | 15944 ft | 395 kts | 113° |
| 2026-04-26 18:57 | -50.44831 | -72.31548 | 16601 ft | 400 kts | 111° |
| 2026-04-26 18:58 | -50.45772 | -72.27404 | 17228 ft | 405 kts | 110° |
| 2026-04-26 18:58 | -50.46705 | -72.23203 | 17872 ft | 410 kts | 110° |
| 2026-04-26 18:58 | -50.47637 | -72.18939 | 18457 ft | 415 kts | 110° |
| 2026-04-26 18:58 | -50.48571 | -72.14622 | 19065 ft | 418 kts | 110° |
| 2026-04-26 18:59 | -50.49505 | -72.10287 | 19654 ft | 421 kts | 111° |
| 2026-04-26 18:59 | -50.50443 | -72.05918 | 20313 ft | 422 kts | 111° |
| 2026-04-26 18:59 | -50.51379 | -72.01550 | 20888 ft | 424 kts | 111° |
| 2026-04-26 18:59 | -50.52322 | -71.97141 | 21443 ft | 427 kts | 111° |
| 2026-04-26 19:00 | -50.53269 | -71.92703 | 22024 ft | 429 kts | 111° |
| 2026-04-26 19:00 | -50.54220 | -71.88237 | 22554 ft | 433 kts | 111° |
| 2026-04-26 19:00 | -50.55176 | -71.83735 | 23098 ft | 435 kts | 111° |
| 2026-04-26 19:00 | -50.56176 | -71.79236 | 23603 ft | 436 kts | 117° |
| 2026-04-26 19:01 | -50.57753 | -71.75227 | 24017 ft | 430 kts | 134° |
| 2026-04-26 19:01 | -50.59696 | -71.71624 | 24385 ft | 434 kts | 135° |
| 2026-04-26 19:01 | -50.61675 | -71.68008 | 24834 ft | 436 kts | 135° |
| 2026-04-26 19:01 | -50.63675 | -71.64395 | 25240 ft | 439 kts | 135° |
| 2026-04-26 19:02 | -50.65694 | -71.60770 | 25653 ft | 442 kts | 135° |
| 2026-04-26 19:02 | -50.67734 | -71.57118 | 26058 ft | 444 kts | 135° |
| 2026-04-26 19:02 | -50.69781 | -71.53450 | 26464 ft | 447 kts | 135° |
| 2026-04-26 19:02 | -50.71147 | -71.51001 | 26730 ft | 449 kts | 135° |
| 2026-04-26 19:03 | -50.73913 | -71.46035 | 27257 ft | 452 kts | 135° |
| 2026-04-26 19:03 | -50.75990 | -71.42298 | 27646 ft | 455 kts | 135° |
| 2026-04-26 19:03 | -50.78057 | -71.38576 | 28019 ft | 457 kts | 135° |
| 2026-04-26 19:03 | -50.80159 | -71.34785 | 28399 ft | 460 kts | 135° |
| 2026-04-26 19:04 | -50.82274 | -71.30964 | 28754 ft | 463 kts | 135° |
| 2026-04-26 19:04 | -50.84396 | -71.27125 | 29122 ft | 465 kts | 135° |
| 2026-04-26 19:04 | -50.86533 | -71.23253 | 29472 ft | 468 kts | 135° |
| 2026-04-26 19:04 | -50.88676 | -71.19365 | 29819 ft | 470 kts | 135° |
| 2026-04-26 19:05 | -50.92992 | -71.11514 | 30435 ft | 474 kts | 135° |
| 2026-04-26 19:05 | -50.95158 | -71.07565 | 30731 ft | 476 kts | 135° |
| 2026-04-26 19:05 | -50.97337 | -71.03590 | 31043 ft | 478 kts | 135° |
| 2026-04-26 19:06 | -50.99513 | -70.99573 | 31317 ft | 481 kts | 132° |
| 2026-04-26 19:06 | -51.01298 | -70.95039 | 31619 ft | 489 kts | 116° |
| 2026-04-26 19:06 | -51.02292 | -70.89846 | 31942 ft | 495 kts | 101° |
| 2026-04-26 19:06 | -51.02774 | -70.84411 | 32200 ft | 498 kts | 100° |
| 2026-04-26 19:07 | -51.03244 | -70.78958 | 32538 ft | 498 kts | 99° |
| 2026-04-26 19:07 | -51.03689 | -70.73507 | 32938 ft | 497 kts | 99° |
| 2026-04-26 19:07 | -51.04117 | -70.68070 | 33360 ft | 495 kts | 99° |
| 2026-04-26 19:07 | -51.04538 | -70.62640 | 33734 ft | 495 kts | 99° |
| 2026-04-26 19:08 | -51.04956 | -70.57217 | 34090 ft | 494 kts | 99° |
| 2026-04-26 19:08 | -51.05618 | -70.51898 | 34382 ft | 488 kts | 112° |
| 2026-04-26 19:08 | -51.07068 | -70.47110 | 34730 ft | 476 kts | 129° |
| 2026-04-26 19:08 | -51.09001 | -70.42867 | 35006 ft | 474 kts | 131° |
| 2026-04-26 19:09 | -51.10971 | -70.38663 | 35305 ft | 473 kts | 132° |
| 2026-04-26 19:09 | -51.12954 | -70.34497 | 35626 ft | 472 kts | 132° |
| 2026-04-26 19:09 | -51.14946 | -70.30353 | 35947 ft | 470 kts | 133° |
| 2026-04-26 19:09 | -51.16934 | -70.26233 | 36256 ft | 469 kts | 133° |
| 2026-04-26 19:10 | -51.18897 | -70.22168 | 36571 ft | 468 kts | 133° |
| 2026-04-26 19:10 | -51.20902 | -70.18008 | 36867 ft | 467 kts | 133° |
| 2026-04-26 19:10 | -51.22853 | -70.13955 | 37039 ft | 467 kts | 133° |
| 2026-04-26 19:11 | -51.26795 | -70.05747 | 36998 ft | 463 kts | 133° |
| 2026-04-26 19:11 | -51.30705 | -69.97580 | 37006 ft | 463 kts | 133° |
| 2026-04-26 19:12 | -51.34611 | -69.89396 | 37009 ft | 463 kts | 133° |
| 2026-04-26 19:12 | -51.38519 | -69.81182 | 37004 ft | 463 kts | 133° |
| 2026-04-26 19:13 | -51.42418 | -69.72960 | 37010 ft | 464 kts | 133° |
| 2026-04-26 19:13 | -51.46313 | -69.64720 | 37005 ft | 464 kts | 133° |
| 2026-04-26 19:14 | -51.50207 | -69.56457 | 37018 ft | 464 kts | 133° |
| 2026-04-26 19:14 | -51.54096 | -69.48176 | 37020 ft | 464 kts | 132° |
| 2026-04-26 19:15 | -51.57983 | -69.39882 | 37017 ft | 464 kts | 132° |
| 2026-04-26 19:15 | -51.62448 | -69.32739 | 36981 ft | 443 kts | 157° |
| 2026-04-26 19:16 | -51.67975 | -69.28458 | 36981 ft | 441 kts | 161° |
| 2026-04-26 19:16 | -51.73544 | -69.24458 | 36997 ft | 441 kts | 162° |
| 2026-04-26 19:17 | -51.79165 | -69.20506 | 37004 ft | 440 kts | 162° |
| 2026-04-26 19:17 | -51.84786 | -69.16562 | 37008 ft | 440 kts | 162° |
| 2026-04-26 19:18 | -51.90410 | -69.12607 | 37021 ft | 441 kts | 162° |
| 2026-04-26 19:18 | -51.96035 | -69.08641 | 37016 ft | 441 kts | 162° |
| 2026-04-26 19:19 | -52.01665 | -69.04659 | 37009 ft | 441 kts | 162° |
| 2026-04-26 19:19 | -52.07296 | -69.00667 | 37007 ft | 441 kts | 162° |
| 2026-04-26 19:20 | -52.12926 | -68.96664 | 37019 ft | 442 kts | 162° |
| 2026-04-26 19:20 | -52.18562 | -68.92645 | 37006 ft | 442 kts | 162° |
| 2026-04-26 19:21 | -52.24193 | -68.88619 | 36999 ft | 442 kts | 162° |
| 2026-04-26 19:21 | -52.29790 | -68.84606 | 37000 ft | 442 kts | 162° |
| 2026-04-26 19:22 | -52.35422 | -68.80557 | 37006 ft | 443 kts | 162° |
| 2026-04-26 19:22 | -52.41062 | -68.76490 | 36994 ft | 443 kts | 162° |
| 2026-04-26 19:23 | -52.46699 | -68.72414 | 36988 ft | 443 kts | 162° |
| 2026-04-26 19:23 | -52.52337 | -68.68327 | 36982 ft | 443 kts | 162° |
| 2026-04-26 19:24 | -52.57976 | -68.64227 | 36987 ft | 443 kts | 162° |
| 2026-04-26 19:24 | -52.66424 | -68.58062 | 36983 ft | 443 kts | 162° |
| 2026-04-26 19:25 | -52.70191 | -68.55305 | 36970 ft | 443 kts | 162° |
| 2026-04-26 19:25 | -52.77689 | -68.49805 | 36975 ft | 443 kts | 162° |
| 2026-04-26 19:26 | -52.83324 | -68.45657 | 36968 ft | 443 kts | 162° |
| 2026-04-26 19:26 | -52.88958 | -68.41502 | 36959 ft | 443 kts | 162° |
| 2026-04-26 19:27 | -52.94591 | -68.37336 | 36954 ft | 443 kts | 162° |
| 2026-04-26 19:27 | -53.00222 | -68.33159 | 36947 ft | 443 kts | 162° |
| 2026-04-26 19:28 | -53.05857 | -68.28968 | 36945 ft | 443 kts | 162° |
| 2026-04-26 19:28 | -53.11483 | -68.24771 | 36945 ft | 443 kts | 162° |
| 2026-04-26 19:29 | -53.17075 | -68.20588 | 36936 ft | 443 kts | 162° |
| 2026-04-26 19:29 | -53.22702 | -68.16365 | 36935 ft | 444 kts | 162° |
| 2026-04-26 19:30 | -53.28334 | -68.12128 | 36936 ft | 444 kts | 162° |
| 2026-04-26 19:30 | -53.31133 | -68.10017 | 36610 ft | 438 kts | 162° |
| 2026-04-26 19:30 | -53.33006 | -68.08603 | 36068 ft | 440 kts | 162° |
| 2026-04-26 19:31 | -53.36738 | -68.05782 | 34802 ft | 448 kts | 162° |
| 2026-04-26 19:31 | -53.39590 | -68.03623 | 34014 ft | 451 kts | 162° |
| 2026-04-26 19:31 | -53.42447 | -68.01454 | 33256 ft | 450 kts | 162° |
| 2026-04-26 19:31 | -53.45295 | -67.99289 | 32573 ft | 448 kts | 162° |
| 2026-04-26 19:32 | -53.48122 | -67.97139 | 32068 ft | 443 kts | 162° |
| 2026-04-26 19:32 | -53.50911 | -67.95014 | 31549 ft | 438 kts | 162° |
| 2026-04-26 19:32 | -53.53673 | -67.92907 | 31002 ft | 435 kts | 161° |
| 2026-04-26 19:32 | -53.56420 | -67.90807 | 30457 ft | 432 kts | 161° |
| 2026-04-26 19:33 | -53.59149 | -67.88719 | 29924 ft | 429 kts | 161° |
| 2026-04-26 19:33 | -53.61855 | -67.86647 | 29305 ft | 426 kts | 161° |
| 2026-04-26 19:33 | -53.64541 | -67.84586 | 28776 ft | 422 kts | 161° |
| 2026-04-26 19:33 | -53.67201 | -67.82542 | 28256 ft | 418 kts | 161° |
| 2026-04-26 19:34 | -53.69838 | -67.80515 | 27740 ft | 415 kts | 161° |
| 2026-04-26 19:34 | -53.72450 | -67.78504 | 27256 ft | 411 kts | 161° |
| 2026-04-26 19:34 | -53.75047 | -67.76501 | 26726 ft | 409 kts | 161° |
| 2026-04-26 19:34 | -53.77693 | -67.74902 | 26102 ft | 399 kts | 175° |
| 2026-04-26 19:35 | -53.80426 | -67.74441 | 25583 ft | 393 kts | 181° |
| 2026-04-26 19:35 | -53.82221 | -67.74192 | 25318 ft | 389 kts | 181° |
| 2026-04-26 19:35 | -53.85785 | -67.73744 | 24709 ft | 386 kts | 181° |
| 2026-04-26 19:35 | -53.88453 | -67.73437 | 24237 ft | 384 kts | 182° |
| 2026-04-26 19:36 | -53.91121 | -67.73144 | 23758 ft | 383 kts | 182° |
| 2026-04-26 19:36 | -53.92016 | -67.73047 | 23599 ft | 382 kts | 182° |
| 2026-04-26 19:36 | -53.96421 | -67.72575 | 22714 ft | 380 kts | 182° |
| 2026-04-26 19:36 | -53.98162 | -67.72388 | 22397 ft | 378 kts | 182° |
| 2026-04-26 19:37 | -54.00780 | -67.72108 | 21929 ft | 375 kts | 182° |
| 2026-04-26 19:37 | -54.03375 | -67.71830 | 21489 ft | 372 kts | 182° |
| 2026-04-26 19:37 | -54.05951 | -67.71554 | 21044 ft | 370 kts | 182° |
| 2026-04-26 19:37 | -54.08512 | -67.71279 | 20604 ft | 367 kts | 181° |
| 2026-04-26 19:38 | -54.11054 | -67.71006 | 20167 ft | 365 kts | 181° |
| 2026-04-26 19:38 | -54.13584 | -67.70733 | 19745 ft | 363 kts | 181° |
| 2026-04-26 19:38 | -54.16102 | -67.70462 | 19330 ft | 361 kts | 181° |
| 2026-04-26 19:38 | -54.18604 | -67.70192 | 18920 ft | 359 kts | 181° |
| 2026-04-26 19:39 | -54.21095 | -67.69923 | 18515 ft | 357 kts | 181° |
| 2026-04-26 19:39 | -54.23568 | -67.69656 | 18111 ft | 356 kts | 181° |
| 2026-04-26 19:39 | -54.26037 | -67.69388 | 17665 ft | 354 kts | 181° |
| 2026-04-26 19:39 | -54.28490 | -67.69122 | 17247 ft | 352 kts | 181° |
| 2026-04-26 19:40 | -54.30921 | -67.68859 | 16852 ft | 349 kts | 181° |
| 2026-04-26 19:40 | -54.33335 | -67.68596 | 16460 ft | 346 kts | 181° |
| 2026-04-26 19:40 | -54.35725 | -67.68337 | 16080 ft | 343 kts | 181° |
| 2026-04-26 19:40 | -54.38093 | -67.68079 | 15700 ft | 339 kts | 181° |
| 2026-04-26 19:41 | -54.40443 | -67.67822 | 15319 ft | 339 kts | 181° |
| 2026-04-26 19:41 | -54.42817 | -67.67563 | 14970 ft | 344 kts | 181° |
| 2026-04-26 19:41 | -54.45214 | -67.67301 | 14569 ft | 346 kts | 181° |
| 2026-04-26 19:41 | -54.46805 | -67.67127 | 14315 ft | 346 kts | 181° |
| 2026-04-26 19:42 | -54.50014 | -67.66775 | 13844 ft | 343 kts | 181° |
| 2026-04-26 19:42 | -54.52406 | -67.66513 | 13222 ft | 348 kts | 181° |
| 2026-04-26 19:42 | -54.54840 | -67.66246 | 12543 ft | 352 kts | 181° |
| 2026-04-26 19:42 | -54.57289 | -67.65976 | 11977 ft | 353 kts | 181° |
| 2026-04-26 19:43 | -54.59742 | -67.65705 | 11413 ft | 354 kts | 181° |
| 2026-04-26 19:43 | -54.62204 | -67.65433 | 10859 ft | 353 kts | 181° |
| 2026-04-26 19:43 | -54.64614 | -67.65166 | 10369 ft | 340 kts | 181° |
| 2026-04-26 19:43 | -54.66926 | -67.64907 | 9951 ft | 326 kts | 182° |
| 2026-04-26 19:44 | -54.69142 | -67.64656 | 9590 ft | 312 kts | 182° |
| 2026-04-26 19:44 | -54.71235 | -67.64422 | 9251 ft | 299 kts | 183° |
| 2026-04-26 19:44 | -54.73264 | -67.64191 | 8965 ft | 286 kts | 183° |
| 2026-04-26 19:44 | -54.75230 | -67.63976 | 8683 ft | 279 kts | 183° |
| 2026-04-26 19:45 | -54.77148 | -67.63766 | 8342 ft | 274 kts | 182° |
| 2026-04-26 19:45 | -54.78988 | -67.63916 | 7976 ft | 255 kts | 204° |
| 2026-04-26 19:45 | -54.80415 | -67.65404 | 7686 ft | 229 kts | 230° |
| 2026-04-26 19:45 | -54.81304 | -67.67772 | 6938 ft | 242 kts | 251° |
| 2026-04-26 19:46 | -54.81666 | -67.70586 | 6659 ft | 235 kts | 268° |
| 2026-04-26 19:46 | -54.81650 | -67.73304 | 6603 ft | 217 kts | 270° |
| 2026-04-26 19:46 | -54.81849 | -67.75783 | 6469 ft | 198 kts | 259° |
| 2026-04-26 19:46 | -54.82109 | -67.78024 | 6416 ft | 183 kts | 262° |
| 2026-04-26 19:47 | -54.82293 | -67.80159 | 6309 ft | 176 kts | 264° |
| 2026-04-26 19:47 | -54.82390 | -67.81545 | 6155 ft | 173 kts | 265° |
| 2026-04-26 19:47 | -54.82548 | -67.84311 | 5791 ft | 173 kts | 267° |
| 2026-04-26 19:47 | -54.82644 | -67.86383 | 5504 ft | 171 kts | 267° |
| 2026-04-26 19:48 | -54.82733 | -67.88413 | 5269 ft | 166 kts | 268° |
| 2026-04-26 19:48 | -54.82815 | -67.90411 | 5045 ft | 166 kts | 268° |
| 2026-04-26 19:48 | -54.82909 | -67.92405 | 4815 ft | 166 kts | 268° |
| 2026-04-26 19:48 | -54.82986 | -67.94419 | 4547 ft | 167 kts | 269° |
| 2026-04-26 19:49 | -54.83058 | -67.96394 | 4310 ft | 162 kts | 269° |
| 2026-04-26 19:49 | -54.83129 | -67.98328 | 4045 ft | 160 kts | 270° |
| 2026-04-26 19:49 | -54.83199 | -68.00242 | 3810 ft | 159 kts | 270° |
| 2026-04-26 19:49 | -54.83275 | -68.02154 | 3558 ft | 158 kts | 271° |
| 2026-04-26 19:50 | -54.83346 | -68.04040 | 3261 ft | 156 kts | 266° |
| 2026-04-26 19:50 | -54.83418 | -68.05919 | 3082 ft | 158 kts | 270° |
| 2026-04-26 19:50 | -54.83493 | -68.07772 | 2844 ft | 150 kts | 268° |
| 2026-04-26 19:50 | -54.83556 | -68.09541 | 2545 ft | 149 kts | 268° |
| 2026-04-26 19:51 | -54.83628 | -68.11337 | 2269 ft | 149 kts | 269° |
| 2026-04-26 19:51 | -54.83696 | -68.13141 | 2024 ft | 152 kts | 268° |
| 2026-04-26 19:51 | -54.83763 | -68.14984 | 1773 ft | 152 kts | 267° |
| 2026-04-26 19:51 | -54.83827 | -68.16801 | 1520 ft | 149 kts | 267° |
| 2026-04-26 19:52 | -54.83891 | -68.18601 | 1280 ft | 150 kts | 267° |
| 2026-04-26 19:52 | -54.83975 | -68.20402 | 1048 ft | 150 kts | 267° |
| 2026-04-26 19:52 | -54.84054 | -68.22185 | 805 ft | 146 kts | 269° |
| 2026-04-26 19:52 | -54.84119 | -68.23978 | 570 ft | 153 kts | 269° |
| 2026-04-26 19:53 | -54.84185 | -68.25825 | 339 ft | 152 kts | 268° |
| 2026-04-26 19:53 | -54.84258 | -68.27694 | 124 ft | 155 kts | 267° |
| 2026-04-26 19:53 | -54.84321 | -68.29356 | 88 ft | 110 kts | 265° |
| 2026-04-26 19:53 | -54.84359 | -68.30304 | 85 ft | 49 kts | 265° |
| 2026-04-26 19:54 | -54.84377 | -68.30781 | 121 ft | 25 kts | 266° |
| 2026-04-26 19:54 | -54.84359 | -68.30952 | 88 ft | 9 kts | 334° |
| 2026-04-26 19:54 | -54.84292 | -68.30961 | 89 ft | 12 kts | 358° |
| 2026-04-26 19:54 | -54.84201 | -68.30972 | 88 ft | 14 kts | 355° |
| 2026-04-26 19:55 | -54.84106 | -68.30991 | 88 ft | 12 kts | 340° |
| 2026-04-26 19:55 | -54.84092 | -68.31069 | 85 ft | 7 kts | 269° |
| 2026-04-26 19:55 | -54.84086 | -68.31153 | 85 ft | 2 kts | 323° |
| 2026-04-26 19:55 | -54.84070 | -68.31161 | 87 ft | 4 kts | 349° |
| 2026-04-26 19:56 | -54.84034 | -68.31174 | 90 ft | 1 kts | 348° |
| 2026-04-26 19:56 | -54.84029 | -68.31175 | 87 ft | 0 kts | 348° |